createdAt,value
2018-10-02T00:02:21.181Z,11.48
2018-10-02T00:04:49.465Z,11.49
2018-10-02T00:07:17.733Z,11.49
2018-10-02T00:09:45.953Z,11.49
2018-10-02T00:12:19.686Z,11.50
2018-10-02T00:14:47.917Z,11.51
2018-10-02T00:17:16.264Z,11.49
2018-10-02T00:19:44.546Z,11.50
2018-10-02T00:22:12.764Z,11.49
2018-10-02T00:24:41.074Z,11.47
2018-10-02T00:27:09.397Z,11.46
2018-10-02T00:29:37.665Z,11.47
2018-10-02T00:32:06.035Z,11.46
2018-10-02T00:34:34.172Z,11.46
2018-10-02T00:37:02.424Z,11.44
2018-10-02T00:39:30.726Z,11.41
2018-10-02T00:41:58.985Z,11.39
2018-10-02T00:44:27.257Z,11.40
2018-10-02T00:46:55.535Z,11.41
2018-10-02T00:49:23.825Z,11.37
2018-10-02T00:51:52.108Z,11.36
2018-10-02T00:54:20.357Z,11.35
2018-10-02T00:56:48.628Z,11.35
2018-10-02T00:59:16.876Z,11.35
2018-10-02T01:01:45.130Z,11.41
2018-10-02T01:04:13.385Z,11.45
2018-10-02T01:06:41.662Z,11.49
2018-10-02T01:09:11.500Z,11.52
2018-10-02T01:11:40.137Z,11.53
2018-10-02T01:14:08.405Z,11.53
2018-10-02T01:16:36.728Z,11.50
2018-10-02T01:19:05.185Z,11.49
2018-10-02T01:21:33.902Z,11.49
2018-10-02T01:24:02.177Z,11.44
2018-10-02T01:26:30.445Z,11.38
2018-10-02T01:28:58.719Z,11.35
2018-10-02T01:31:26.981Z,11.35
2018-10-02T01:33:55.294Z,11.36
2018-10-02T01:36:23.572Z,11.38
2018-10-02T01:38:51.832Z,11.39
2018-10-02T01:41:20.109Z,11.43
2018-10-02T01:43:48.380Z,11.44
2018-10-02T01:46:16.680Z,11.42
2018-10-02T01:48:44.993Z,11.41
2018-10-02T01:51:13.292Z,11.42
2018-10-02T01:53:41.517Z,11.43
2018-10-02T01:56:10.513Z,11.42
2018-10-02T01:58:39.082Z,11.41
2018-10-02T02:01:07.410Z,11.41
2018-10-02T02:03:35.739Z,11.41
2018-10-02T02:06:04.024Z,11.40
2018-10-02T02:08:32.300Z,11.39
2018-10-02T02:11:00.554Z,11.38
2018-10-02T02:13:28.843Z,11.41
2018-10-02T02:15:57.119Z,11.42
2018-10-02T02:18:25.372Z,11.43
2018-10-02T02:20:53.643Z,11.44
2018-10-02T02:23:21.905Z,11.45
2018-10-02T02:25:50.125Z,11.46
2018-10-02T02:28:18.397Z,11.45
2018-10-02T02:30:46.626Z,11.45
2018-10-02T02:33:14.853Z,11.46
2018-10-02T02:35:43.097Z,11.48
2018-10-02T02:38:11.364Z,11.45
2018-10-02T02:40:39.649Z,11.43
2018-10-02T02:43:07.947Z,11.43
2018-10-02T02:45:36.180Z,11.46
2018-10-02T02:48:09.629Z,11.45
2018-10-02T02:51:42.752Z,11.45
2018-10-02T02:54:10.987Z,11.47
2018-10-02T02:56:39.228Z,11.49
2018-10-02T02:59:07.459Z,11.51
2018-10-02T03:01:35.811Z,11.51
2018-10-02T03:04:04.078Z,11.51
2018-10-02T03:06:32.314Z,11.51
2018-10-02T03:09:00.488Z,11.51
2018-10-02T03:11:28.660Z,11.49
2018-10-02T03:13:56.894Z,11.49
2018-10-02T03:16:25.112Z,11.43
2018-10-02T03:18:53.259Z,11.43
2018-10-02T03:21:21.423Z,11.46
2018-10-02T03:23:49.575Z,11.47
2018-10-02T03:26:18.463Z,11.50
2018-10-02T03:28:46.719Z,11.52
2018-10-02T03:31:14.934Z,11.50
2018-10-02T03:33:43.098Z,11.52
2018-10-02T03:36:11.246Z,11.48
2018-10-02T03:38:39.414Z,11.48
2018-10-02T03:41:07.660Z,11.46
2018-10-02T03:43:35.855Z,11.47
2018-10-02T03:46:04.040Z,11.43
2018-10-02T03:48:32.812Z,11.41
2018-10-02T03:51:00.975Z,11.44
2018-10-02T03:53:29.138Z,11.42
2018-10-02T03:55:57.343Z,11.41
2018-10-02T03:58:25.938Z,11.38
2018-10-02T04:00:54.112Z,11.34
2018-10-02T04:03:22.452Z,11.36
2018-10-02T04:05:50.622Z,11.33
2018-10-02T04:08:18.782Z,11.33
2018-10-02T04:10:46.970Z,11.31
2018-10-02T04:13:15.245Z,11.32
2018-10-02T04:15:43.942Z,11.34
2018-10-02T04:18:12.085Z,11.29
2018-10-02T04:20:40.924Z,11.27
2018-10-02T04:23:09.071Z,11.31
2018-10-02T04:25:37.268Z,11.30
2018-10-02T04:28:05.550Z,11.31
2018-10-02T04:30:33.703Z,11.25
2018-10-02T04:33:07.613Z,11.26
2018-10-02T04:35:46.510Z,11.28
2018-10-02T04:38:14.820Z,11.33
2018-10-02T04:40:42.978Z,11.36
2018-10-02T04:43:11.131Z,11.43
2018-10-02T04:45:39.275Z,11.43
2018-10-02T04:48:07.423Z,11.43
2018-10-02T04:50:35.698Z,11.47
2018-10-02T04:53:03.882Z,11.48
2018-10-02T04:55:32.067Z,11.50
2018-10-02T04:58:00.223Z,11.54
2018-10-02T05:00:28.358Z,11.55
2018-10-02T05:02:56.618Z,11.57
2018-10-02T05:05:24.776Z,11.56
2018-10-02T05:07:52.932Z,11.55
2018-10-02T05:10:21.075Z,11.55
2018-10-02T05:12:49.220Z,11.58
2018-10-02T05:15:17.411Z,11.58
2018-10-02T05:17:45.628Z,11.54
2018-10-02T05:20:13.849Z,11.56
2018-10-02T05:22:41.982Z,11.60
2018-10-02T05:25:10.219Z,11.63
2018-10-02T05:27:38.456Z,11.64
2018-10-02T05:30:06.583Z,11.65
2018-10-02T05:32:34.726Z,11.67
2018-10-02T05:35:03.055Z,11.66
2018-10-02T05:37:31.131Z,11.68
2018-10-02T05:39:59.345Z,11.71
2018-10-02T05:42:27.480Z,11.68
2018-10-02T05:44:55.631Z,11.70
2018-10-02T05:47:23.812Z,11.72
2018-10-02T05:49:52.007Z,11.72
2018-10-02T05:52:20.156Z,11.72
2018-10-02T05:54:48.324Z,11.74
2018-10-02T05:57:16.495Z,11.75
2018-10-02T05:59:44.720Z,11.74
2018-10-02T06:02:13.980Z,11.73
2018-10-02T06:04:42.156Z,11.71
2018-10-02T06:07:10.298Z,11.71
2018-10-02T06:09:38.472Z,11.71
2018-10-02T06:12:06.619Z,11.72
2018-10-02T06:14:34.852Z,11.73
2018-10-02T06:17:03.039Z,11.74
2018-10-02T06:19:31.200Z,11.74
2018-10-02T06:21:59.395Z,11.77
2018-10-02T06:24:27.839Z,11.79
2018-10-02T06:26:55.999Z,11.80
2018-10-02T06:29:24.244Z,11.84
2018-10-02T06:31:52.383Z,11.86
2018-10-02T06:34:20.536Z,11.90
2018-10-02T06:36:48.790Z,11.93
2018-10-02T06:39:16.979Z,11.91
2018-10-02T06:41:45.195Z,11.88
2018-10-02T06:44:13.454Z,11.89
2018-10-02T06:46:42.231Z,11.91
2018-10-02T06:49:10.424Z,11.90
2018-10-02T06:51:38.684Z,11.88
2018-10-02T06:54:06.878Z,11.86
2018-10-02T06:56:36.016Z,11.82
2018-10-02T06:59:04.199Z,11.79
2018-10-02T07:01:32.359Z,11.78
2018-10-02T07:04:01.057Z,11.67
2018-10-02T07:06:29.243Z,11.66
2018-10-02T07:08:57.412Z,11.69
2018-10-02T07:11:25.576Z,11.71
2018-10-02T07:13:53.879Z,11.73
2018-10-02T07:16:22.147Z,11.73
2018-10-02T07:18:50.441Z,11.76
2018-10-02T07:21:18.626Z,11.72
2018-10-02T07:23:46.791Z,11.73
2018-10-02T07:26:14.935Z,11.78
2018-10-02T07:28:43.127Z,11.77
2018-10-02T07:31:11.317Z,11.72
2018-10-02T07:33:39.479Z,11.73
2018-10-02T07:36:07.667Z,11.75
2018-10-02T07:38:35.871Z,11.77
2018-10-02T07:41:04.078Z,11.77
2018-10-02T07:43:32.411Z,11.78
2018-10-02T07:46:00.587Z,11.81
2018-10-02T07:48:28.768Z,11.80
2018-10-02T07:50:57.023Z,11.84
2018-10-02T07:53:25.127Z,11.87
2018-10-02T07:55:53.295Z,11.91
2018-10-02T07:58:21.441Z,11.96
2018-10-02T08:00:49.644Z,12.01
2018-10-02T08:03:17.820Z,12.03
2018-10-02T08:05:46.660Z,12.03
2018-10-02T08:08:14.836Z,12.03
2018-10-02T08:10:43.016Z,12.06
2018-10-02T08:13:11.223Z,12.07
2018-10-02T08:15:39.666Z,12.06
2018-10-02T08:18:08.400Z,12.03
2018-10-02T08:20:36.607Z,12.02
2018-10-02T08:23:04.745Z,11.97
2018-10-02T08:25:32.924Z,11.95
2018-10-02T08:28:01.115Z,11.94
2018-10-02T08:30:29.348Z,11.94
2018-10-02T08:32:57.559Z,11.92
2018-10-02T08:35:25.901Z,11.87
2018-10-02T08:37:54.241Z,11.87
2018-10-02T08:40:22.411Z,11.87
2018-10-02T08:42:51.236Z,11.86
2018-10-02T08:45:19.499Z,11.84
2018-10-02T08:47:47.670Z,11.84
2018-10-02T08:50:15.879Z,11.87
2018-10-02T08:52:44.054Z,11.89
2018-10-02T08:55:12.204Z,11.93
2018-10-02T08:57:41.032Z,11.98
2018-10-02T09:00:09.693Z,12.00
2018-10-02T09:02:37.906Z,12.03
2018-10-02T09:05:06.076Z,12.07
2018-10-02T09:07:34.211Z,12.05
2018-10-02T09:10:02.373Z,12.07
2018-10-02T09:12:30.605Z,12.08
2018-10-02T09:14:58.718Z,12.10
2018-10-02T09:17:26.872Z,12.13
2018-10-02T09:19:55.068Z,12.19
2018-10-02T09:22:23.705Z,12.20
2018-10-02T09:24:52.033Z,12.22
2018-10-02T09:27:20.148Z,12.22
2018-10-02T09:29:53.646Z,12.21
2018-10-02T09:32:27.185Z,12.23
2018-10-02T09:35:00.798Z,12.22
2018-10-02T09:37:34.275Z,12.20
2018-10-02T09:40:07.911Z,12.21
2018-10-02T09:42:41.499Z,12.21
2018-10-02T09:45:09.609Z,12.24
2018-10-02T09:47:37.801Z,12.24
2018-10-02T09:50:05.954Z,12.26
2018-10-02T09:52:34.164Z,12.26
2018-10-02T09:55:02.353Z,12.27
2018-10-02T09:57:30.547Z,12.28
2018-10-02T09:59:58.858Z,12.31
2018-10-02T10:02:32.978Z,12.30
2018-10-02T10:05:01.371Z,12.28
2018-10-02T10:07:29.584Z,12.29
2018-10-02T10:09:57.749Z,12.31
2018-10-02T10:12:25.930Z,12.32
2018-10-02T10:14:54.059Z,12.32
2018-10-02T10:17:22.384Z,12.31
2018-10-02T10:19:50.527Z,12.30
2018-10-02T10:22:18.687Z,12.31
2018-10-02T10:24:46.885Z,12.32
2018-10-02T10:27:15.033Z,12.29
2018-10-02T10:29:43.174Z,12.31
2018-10-02T10:32:11.798Z,12.32
2018-10-02T10:34:40.009Z,12.34
2018-10-02T10:37:08.317Z,12.35
2018-10-02T10:39:36.499Z,12.32
2018-10-02T10:42:04.662Z,12.33
2018-10-02T10:44:32.868Z,12.32
2018-10-02T10:47:01.123Z,12.33
2018-10-02T10:49:29.183Z,12.37
2018-10-02T10:51:57.551Z,12.38
2018-10-02T10:54:25.703Z,12.39
2018-10-02T10:56:53.874Z,12.40
2018-10-02T10:59:22.240Z,12.42
2018-10-02T11:01:50.417Z,12.43
2018-10-02T11:04:18.568Z,12.42
2018-10-02T11:06:46.723Z,12.43
2018-10-02T11:09:14.906Z,12.42
2018-10-02T11:11:43.090Z,12.40
2018-10-02T11:14:11.258Z,12.42
2018-10-02T11:16:39.591Z,12.41
2018-10-02T11:19:07.746Z,12.42
2018-10-02T11:21:35.911Z,12.43
2018-10-02T11:24:04.163Z,12.45
2018-10-02T11:26:32.260Z,12.48
2018-10-02T11:29:00.442Z,12.51
2018-10-02T11:31:28.668Z,12.53
2018-10-02T11:33:56.807Z,12.55
2018-10-02T11:36:25.000Z,12.58
2018-10-02T11:38:53.199Z,12.61
2018-10-02T11:41:21.358Z,12.64
2018-10-02T11:43:49.604Z,12.65
2018-10-02T11:46:17.687Z,12.64
2018-10-02T11:48:45.893Z,12.63
2018-10-02T11:51:14.143Z,12.62
2018-10-02T11:53:42.288Z,12.62
2018-10-02T11:56:10.468Z,12.61
2018-10-02T11:58:38.662Z,12.59
2018-10-02T12:01:06.941Z,12.58
2018-10-02T12:03:35.047Z,12.54
2018-10-02T12:06:03.171Z,12.48
2018-10-02T12:08:31.330Z,12.43
2018-10-02T12:10:59.583Z,12.44
2018-10-02T12:13:27.816Z,12.45
2018-10-02T12:15:55.886Z,12.46
2018-10-02T12:18:24.131Z,12.49
2018-10-02T12:20:52.376Z,12.52
2018-10-02T12:23:20.529Z,12.50
2018-10-02T12:25:48.678Z,12.53
2018-10-02T12:28:16.855Z,12.57
2018-10-02T12:30:45.031Z,12.65
2018-10-02T12:33:13.275Z,12.68
2018-10-02T12:35:41.474Z,12.74
2018-10-02T12:38:09.608Z,12.75
2018-10-02T12:40:37.762Z,12.76
2018-10-02T12:43:05.981Z,12.79
2018-10-02T12:45:34.150Z,12.78
2018-10-02T12:48:02.356Z,12.78
2018-10-02T12:50:30.507Z,12.74
2018-10-02T12:52:58.743Z,12.78
2018-10-02T12:55:26.912Z,12.82
2018-10-02T12:57:55.155Z,12.81
2018-10-02T13:00:23.340Z,12.81
2018-10-02T13:02:51.497Z,12.83
2018-10-02T13:05:19.666Z,12.89
2018-10-02T13:07:47.848Z,12.92
2018-10-02T13:10:16.005Z,12.96
2018-10-02T13:12:44.188Z,13.00
2018-10-02T13:15:12.343Z,13.04
2018-10-02T13:17:40.535Z,13.06
2018-10-02T13:20:08.786Z,13.06
2018-10-02T13:22:36.958Z,13.07
2018-10-02T13:25:05.114Z,13.07
2018-10-02T13:27:33.258Z,13.07
2018-10-02T13:30:01.418Z,13.09
2018-10-02T13:32:29.599Z,13.09
2018-10-02T13:34:57.839Z,13.10
2018-10-02T13:37:26.025Z,13.09
2018-10-02T13:39:54.195Z,13.08
2018-10-02T13:42:22.598Z,13.09
2018-10-02T13:44:50.906Z,13.10
2018-10-02T13:47:19.071Z,13.13
2018-10-02T13:49:47.219Z,13.15
2018-10-02T13:52:15.550Z,13.17
2018-10-02T13:54:43.710Z,13.19
2018-10-02T13:57:11.974Z,13.16
2018-10-02T13:59:40.157Z,13.16
2018-10-02T14:02:08.303Z,13.15
2018-10-02T14:04:36.458Z,13.16
2018-10-02T14:07:04.667Z,13.17
2018-10-02T14:09:32.912Z,13.15
2018-10-02T14:12:01.186Z,13.17
2018-10-02T14:14:29.424Z,13.18
2018-10-02T14:16:57.594Z,13.20
2018-10-02T14:19:25.818Z,13.21
2018-10-02T14:21:54.016Z,13.23
2018-10-02T14:24:22.220Z,13.25
2018-10-02T14:26:50.366Z,13.30
2018-10-02T14:29:18.538Z,13.30
2018-10-02T14:31:46.771Z,13.32
2018-10-02T14:34:15.005Z,13.36
2018-10-02T14:36:43.211Z,13.37
2018-10-02T14:39:12.002Z,13.40
2018-10-02T14:41:40.496Z,13.44
2018-10-02T14:44:08.734Z,13.45
2018-10-02T14:46:36.991Z,13.46
2018-10-02T14:49:05.184Z,13.47
2018-10-02T14:51:33.379Z,13.50
2018-10-02T14:54:01.968Z,13.53
2018-10-02T14:56:30.163Z,13.55
2018-10-02T14:58:58.570Z,13.61
2018-10-02T15:01:26.754Z,13.64
2018-10-02T15:03:54.886Z,13.66
2018-10-02T15:06:23.047Z,13.67
2018-10-02T15:08:51.202Z,13.70
2018-10-02T15:11:19.368Z,13.75
2018-10-02T15:13:47.571Z,13.79
2018-10-02T15:16:15.716Z,13.82
2018-10-02T15:18:43.871Z,13.85
2018-10-02T15:21:12.048Z,13.88
2018-10-02T15:23:40.272Z,13.88
2018-10-02T15:26:08.439Z,13.93
2018-10-02T15:28:36.615Z,13.97
2018-10-02T15:31:04.791Z,14.03
2018-10-02T15:33:33.195Z,14.08
2018-10-02T15:36:01.342Z,14.17
2018-10-02T15:38:29.588Z,14.25
2018-10-02T15:40:57.723Z,14.30
2018-10-02T15:43:25.923Z,14.35
2018-10-02T15:45:54.106Z,14.41
2018-10-02T15:48:22.364Z,14.45
2018-10-02T15:50:50.558Z,14.51
2018-10-02T15:53:18.722Z,14.55
2018-10-02T15:55:46.862Z,14.59
2018-10-02T15:58:15.036Z,14.62
2018-10-02T16:00:43.309Z,14.64
2018-10-02T16:03:11.450Z,14.68
2018-10-02T16:05:39.615Z,14.73
2018-10-02T16:08:07.802Z,14.77
2018-10-02T16:10:36.009Z,14.77
2018-10-02T16:13:04.215Z,14.78
2018-10-02T16:15:32.402Z,14.76
2018-10-02T16:18:00.634Z,14.76
2018-10-02T16:20:28.791Z,14.75
2018-10-02T16:22:57.019Z,14.76
2018-10-02T16:25:25.233Z,14.78
2018-10-02T16:27:53.490Z,14.76
2018-10-02T16:30:21.583Z,14.75
2018-10-02T16:32:49.777Z,14.73
2018-10-02T16:35:18.039Z,14.71
2018-10-02T16:37:46.380Z,14.67
2018-10-02T16:40:14.570Z,14.68
2018-10-02T16:42:42.769Z,14.67
2018-10-02T16:45:11.048Z,14.63
2018-10-02T16:47:39.301Z,14.61
2018-10-02T16:50:07.505Z,14.56
2018-10-02T16:52:35.736Z,14.53
2018-10-02T16:55:03.936Z,14.50
2018-10-02T16:57:32.209Z,14.46
2018-10-02T17:00:00.419Z,14.42
2018-10-02T17:02:28.602Z,14.40
2018-10-02T17:04:56.771Z,14.38
2018-10-02T17:07:24.975Z,14.34
2018-10-02T17:09:53.162Z,14.32
2018-10-02T17:12:21.335Z,14.31
2018-10-02T17:14:49.518Z,14.26
2018-10-02T17:17:17.684Z,14.23
2018-10-02T17:19:45.859Z,14.20
2018-10-02T17:22:14.071Z,14.18
2018-10-02T17:24:42.255Z,14.17
2018-10-02T17:27:10.594Z,14.15
2018-10-02T17:29:38.763Z,14.16
2018-10-02T17:32:07.043Z,14.17
2018-10-02T17:34:35.214Z,14.15
2018-10-02T17:37:03.567Z,14.13
2018-10-02T17:39:31.726Z,14.14
2018-10-02T17:41:59.904Z,14.12
2018-10-02T17:44:28.075Z,14.13
2018-10-02T17:46:56.275Z,14.10
2018-10-02T17:49:24.523Z,14.09
2018-10-02T17:51:52.692Z,14.07
2018-10-02T17:54:20.846Z,14.08
2018-10-02T17:56:49.116Z,14.07
2018-10-02T17:59:17.404Z,14.06
2018-10-02T18:01:45.586Z,14.05
2018-10-02T18:04:13.821Z,14.05
2018-10-02T18:06:42.035Z,14.04
2018-10-02T18:09:10.247Z,14.06
2018-10-02T18:11:38.507Z,14.05
2018-10-02T18:14:06.754Z,14.07
2018-10-02T18:16:34.891Z,14.07
2018-10-02T18:19:03.057Z,14.08
2018-10-02T18:21:31.274Z,14.10
2018-10-02T18:23:59.523Z,14.10
2018-10-02T18:26:27.712Z,14.08
2018-10-02T18:28:56.040Z,14.11
2018-10-02T18:31:24.215Z,14.10
2018-10-02T18:33:52.485Z,14.11
2018-10-02T18:36:20.636Z,14.12
2018-10-02T18:38:48.962Z,14.13
2018-10-02T18:41:17.146Z,14.12
2018-10-02T18:43:45.259Z,14.13
2018-10-02T18:46:13.447Z,14.13
2018-10-02T18:48:41.665Z,14.14
2018-10-02T18:51:09.838Z,14.13
2018-10-02T18:53:38.026Z,14.11
2018-10-02T18:56:06.547Z,14.08
2018-10-02T18:58:34.711Z,14.07
2018-10-02T19:01:02.971Z,14.07
2018-10-02T19:03:31.766Z,14.06
2018-10-02T19:06:00.000Z,14.05
2018-10-02T19:08:33.351Z,14.05
2018-10-02T19:11:06.927Z,14.05
2018-10-02T19:13:35.097Z,14.04
2018-10-02T19:16:08.615Z,14.05
2018-10-02T19:18:36.879Z,14.05
2018-10-02T19:21:05.051Z,14.06
2018-10-02T19:23:33.345Z,14.05
2018-10-02T19:26:07.170Z,14.05
2018-10-02T19:28:35.382Z,14.06
2018-10-02T19:31:08.927Z,14.06
2018-10-02T19:33:37.116Z,14.07
2018-10-02T19:36:08.239Z,14.08
2018-10-02T19:38:41.846Z,14.07
2018-10-02T19:41:10.081Z,14.07
2018-10-02T19:43:38.257Z,14.07
2018-10-02T19:46:11.780Z,14.06
2018-10-02T19:48:39.950Z,14.05
2018-10-02T19:51:13.503Z,14.07
2018-10-02T19:53:41.691Z,14.06
2018-10-02T19:56:09.893Z,14.08
2018-10-02T19:58:38.129Z,14.09
2018-10-02T20:01:06.351Z,14.12
2018-10-02T20:10:41.191Z,14.11
2018-10-02T20:13:09.404Z,14.13
2018-10-02T20:15:37.606Z,14.14
2018-10-02T20:18:05.776Z,14.15
2018-10-02T20:20:34.014Z,14.15
2018-10-02T20:23:02.224Z,14.17
2018-10-02T20:25:30.368Z,14.17
2018-10-02T20:27:58.642Z,14.19
2018-10-02T20:30:26.999Z,14.19
2018-10-02T20:32:55.341Z,14.20
2018-10-02T20:35:23.503Z,14.20
2018-10-02T20:37:51.989Z,14.19
2018-10-02T20:40:20.676Z,14.18
2018-10-02T20:42:48.843Z,14.17
2018-10-02T20:45:17.054Z,14.15
2018-10-02T20:47:45.232Z,14.14
2018-10-02T20:50:13.426Z,14.13
2018-10-02T20:52:41.612Z,14.16
2018-10-02T20:55:09.760Z,14.17
2018-10-02T20:57:37.943Z,14.18
2018-10-02T21:00:06.140Z,14.18
2018-10-02T21:02:34.339Z,14.17
2018-10-02T21:05:02.530Z,14.16
2018-10-02T21:07:30.750Z,14.18
2018-10-02T21:09:59.048Z,14.19
2018-10-02T21:12:27.207Z,14.18
2018-10-02T21:14:55.395Z,14.18
2018-10-02T21:17:23.731Z,14.16
2018-10-02T21:19:51.940Z,14.15
2018-10-02T21:22:20.055Z,14.13
2018-10-02T21:24:48.254Z,14.11
2018-10-02T21:27:16.419Z,14.08
2018-10-02T21:29:44.704Z,14.06
2018-10-02T21:32:12.903Z,14.06
2018-10-02T21:34:41.323Z,14.07
2018-10-02T21:37:09.399Z,14.08
2018-10-02T21:39:37.603Z,14.09
2018-10-02T21:42:05.875Z,14.08
2018-10-02T21:44:34.055Z,14.11
2018-10-02T21:47:02.260Z,14.12
2018-10-02T21:49:30.433Z,14.11
2018-10-02T21:51:58.603Z,14.14
2018-10-02T21:54:26.816Z,14.16
2018-10-02T21:56:55.016Z,14.17
2018-10-02T21:59:23.142Z,14.18
2018-10-02T22:01:51.347Z,14.19
2018-10-02T22:04:19.594Z,14.18
2018-10-02T22:06:47.851Z,14.13
2018-10-02T22:09:16.053Z,14.18
2018-10-02T22:11:44.408Z,14.18
2018-10-02T22:14:12.607Z,14.17
2018-10-02T22:16:40.803Z,14.16
2018-10-02T22:19:09.034Z,14.16
2018-10-02T22:21:37.254Z,14.14
2018-10-02T22:24:05.486Z,14.16
2018-10-02T22:26:33.707Z,14.16
2018-10-02T22:29:01.908Z,14.17
2018-10-02T22:31:30.127Z,14.17
2018-10-02T22:33:58.271Z,14.18
2018-10-02T22:36:26.483Z,14.19
2018-10-02T22:38:54.663Z,14.19
2018-10-02T22:41:22.827Z,14.19
2018-10-02T22:43:51.007Z,14.19
2018-10-02T22:46:19.199Z,14.18
2018-10-02T22:48:47.479Z,14.19
2018-10-02T22:51:15.679Z,14.17
2018-10-02T22:53:43.942Z,14.17
2018-10-02T22:56:12.139Z,14.16
2018-10-02T22:58:40.299Z,14.13
2018-10-02T23:01:08.499Z,14.12
2018-10-02T23:03:36.691Z,14.11
2018-10-02T23:06:04.956Z,14.09
2018-10-02T23:08:33.115Z,14.08
2018-10-02T23:11:01.283Z,14.06
2018-10-02T23:13:29.457Z,14.03
2018-10-02T23:15:57.662Z,14.03
2018-10-02T23:18:25.835Z,14.02
2018-10-02T23:20:53.986Z,14.02
2018-10-02T23:23:22.138Z,14.02
2018-10-02T23:25:50.326Z,14.05
2018-10-02T23:28:18.541Z,14.05
2018-10-02T23:30:46.831Z,14.06
2018-10-02T23:33:14.999Z,14.09
2018-10-02T23:35:43.795Z,14.10
2018-10-02T23:38:12.023Z,14.12
2018-10-02T23:40:40.228Z,14.13
2018-10-02T23:43:08.427Z,14.13
2018-10-02T23:45:36.630Z,14.13
2018-10-02T23:48:04.802Z,14.15
2018-10-02T23:50:33.275Z,14.15
2018-10-02T23:53:01.559Z,14.14
2018-10-02T23:55:29.755Z,14.16
2018-10-02T23:57:57.940Z,14.16
